Time;durP1;ratioP1;P1;durP2;ratioP2;P2;SDS_P1;SDS_P2;PMS_P1;PMS_P2;Temp;Humidity;BMP_temperature;BMP_pressure;BME280_temperature;BME280_humidity;BME280_pressure;Samples;Min_cycle;Max_cycle;Signal;HPM_P1;HPM_P2
2022/10/31 00:01:14;;;;;;;32.78;25.08;;;15.00;99.90;;;;;;5005598;28;20026;-71
2022/10/31 00:03:40;;;;;;;28.67;23.05;;;15.00;99.90;;;;;;5002077;28;20022;-70
2022/10/31 00:06:06;;;;;;;38.78;25.10;;;15.00;99.90;;;;;;5003166;28;20497;-71
2022/10/31 00:08:31;;;;;;;37.35;26.17;;;14.90;99.90;;;;;;5001539;28;20112;-70
2022/10/31 00:10:57;;;;;;;31.33;24.40;;;14.90;99.90;;;;;;5001221;28;20118;-70
2022/10/31 00:13:23;;;;;;;32.97;25.13;;;14.90;99.90;;;;;;5000595;28;20442;-70
2022/10/31 00:15:49;;;;;;;36.80;26.33;;;14.80;99.90;;;;;;5004356;28;20041;-70
2022/10/31 00:18:15;;;;;;;34.25;25.77;;;14.80;99.90;;;;;;5005141;28;20090;-70
2022/10/31 00:20:40;;;;;;;35.40;24.98;;;14.80;99.90;;;;;;5004566;28;20116;-70
2022/10/31 00:23:07;;;;;;;32.58;24.60;;;14.80;99.90;;;;;;5003193;28;20561;-70
2022/10/31 00:25:35;;;;;;;32.30;23.98;;;14.80;99.90;;;;;;5002305;28;20819;-70
2022/10/31 00:28:02;;;;;;;31.02;22.98;;;14.80;99.90;;;;;;5003261;28;20034;-71
2022/10/31 00:30:27;;;;;;;34.38;24.52;;;14.80;99.90;;;;;;5003281;28;20037;-71
2022/10/31 00:32:53;;;;;;;32.90;23.58;;;14.80;99.90;;;;;;5002019;28;20025;-71
2022/10/31 00:35:19;;;;;;;29.48;22.88;;;14.80;99.90;;;;;;5001725;28;20134;-71
2022/10/31 00:37:44;;;;;;;30.65;21.85;;;14.80;99.90;;;;;;5001982;28;20048;-71
2022/10/31 00:40:11;;;;;;;28.27;23.05;;;14.80;99.90;;;;;;5000888;28;20508;-70
2022/10/31 00:42:36;;;;;;;29.10;22.10;;;14.80;99.90;;;;;;5000420;28;20057;-70
2022/10/31 00:45:02;;;;;;;26.38;22.67;;;14.80;99.90;;;;;;5003348;28;20033;-71
2022/10/31 00:47:27;;;;;;;33.08;24.80;;;14.80;99.90;;;;;;5001837;28;20044;-70
2022/10/31 00:49:53;;;;;;;33.05;24.10;;;14.80;99.90;;;;;;5001417;28;20033;-70
2022/10/31 00:52:18;;;;;;;32.65;24.15;;;14.80;99.90;;;;;;5001357;28;20477;-70
2022/10/31 00:54:44;;;;;;;29.85;23.15;;;14.80;99.90;;;;;;5003986;28;20033;-70
2022/10/31 00:57:09;;;;;;;35.10;22.38;;;14.90;99.90;;;;;;5009305;28;20076;-70
2022/10/31 00:59:36;;;;;;;30.90;22.70;;;14.90;99.90;;;;;;5005197;28;20030;-69
2022/10/31 01:02:02;;;;;;;29.17;21.63;;;14.90;99.90;;;;;;5003811;28;20037;-69
2022/10/31 01:04:27;;;;;;;24.95;20.58;;;14.90;99.90;;;;;;5002830;28;20022;-71
2022/10/31 01:06:53;;;;;;;26.70;20.27;;;14.90;99.90;;;;;;5004093;28;20033;-70
2022/10/31 01:09:18;;;;;;;27.42;19.55;;;14.90;99.90;;;;;;5003000;28;21856;-70
2022/10/31 01:11:45;;;;;;;24.38;18.92;;;15.00;99.90;;;;;;5002554;28;20500;-69
2022/10/31 01:14:10;;;;;;;26.10;18.52;;;14.90;99.90;;;;;;5006391;28;20026;-71
2022/10/31 01:16:36;;;;;;;25.42;20.02;;;14.90;99.90;;;;;;4999147;28;20026;-70
2022/10/31 01:19:01;;;;;;;22.35;17.50;;;15.00;99.90;;;;;;5001297;28;20060;-70
2022/10/31 01:21:28;;;;;;;23.55;18.65;;;15.00;99.90;;;;;;5002037;28;20037;-71
2022/10/31 01:23:55;;;;;;;23.20;16.85;;;15.00;99.90;;;;;;5002192;28;20029;-72
2022/10/31 01:26:23;;;;;;;20.08;16.38;;;15.00;99.90;;;;;;4999773;28;20038;-71
2022/10/31 01:28:55;;;;;;;22.50;16.08;;;14.90;99.90;;;;;;5002723;28;20044;-71
2022/10/31 01:31:23;;;;;;;22.13;15.88;;;15.00;99.90;;;;;;5001704;28;20026;-72
2022/10/31 01:33:50;;;;;;;21.17;15.15;;;15.00;99.90;;;;;;5000512;28;20216;-71
2022/10/31 01:36:17;;;;;;;21.17;16.10;;;15.00;99.90;;;;;;5001695;28;20535;-71
2022/10/31 01:38:43;;;;;;;22.20;13.70;;;15.00;99.90;;;;;;5000715;28;20468;-71
2022/10/31 01:41:13;;;;;;;19.50;13.93;;;15.00;99.90;;;;;;5001145;28;20050;-71
2022/10/31 01:43:45;;;;;;;21.60;15.00;;;15.00;99.90;;;;;;5000836;28;20073;-71
2022/10/31 01:46:11;;;;;;;22.38;15.02;;;15.00;99.90;;;;;;5001044;28;20165;-70
2022/10/31 01:48:40;;;;;;;21.13;13.27;;;15.00;99.90;;;;;;5000783;28;20544;-71
2022/10/31 01:51:07;;;;;;;22.10;15.63;;;15.00;99.90;;;;;;5002348;28;20034;-71
2022/10/31 01:53:34;;;;;;;19.88;14.48;;;15.00;99.90;;;;;;5000807;28;20029;-71
2022/10/31 01:56:00;;;;;;;19.40;13.88;;;15.00;99.90;;;;;;5002339;28;20033;-71
2022/10/31 01:58:30;;;;;;;22.77;14.55;;;15.00;99.90;;;;;;5001673;28;20025;-71
2022/10/31 02:00:59;;;;;;;21.27;14.93;;;15.00;99.90;;;;;;5000885;28;20121;-71
2022/10/31 02:03:25;;;;;;;19.33;13.55;;;15.00;99.90;;;;;;5017715;28;20038;-71
2022/10/31 02:05:54;;;;;;;17.95;13.23;;;15.00;99.90;;;;;;5000318;28;20025;-71
2022/10/31 02:08:23;;;;;;;21.05;13.63;;;15.00;99.90;;;;;;4998758;28;20044;-70
2022/10/31 02:10:49;;;;;;;18.88;12.45;;;15.00;99.90;;;;;;4999802;28;20017;-71
2022/10/31 02:13:15;;;;;;;16.10;12.65;;;15.10;99.90;;;;;;5002666;28;20429;-70
2022/10/31 02:15:44;;;;;;;17.88;13.25;;;15.00;99.90;;;;;;5000268;28;20027;-70
2022/10/31 02:18:10;;;;;;;19.27;12.13;;;15.00;99.90;;;;;;5000294;28;20030;-71
2022/10/31 02:20:50;;;;;;;18.95;13.27;;;15.00;99.90;;;;;;4999389;28;20511;-71
2022/10/31 02:24:04;;;;;;;18.05;12.40;;;15.00;99.90;;;;;;5007954;28;20659;-71
2022/10/31 02:26:55;;;;;;;19.48;12.45;;;15.00;99.90;;;;;;4993726;28;20070;-71
2022/10/31 02:29:39;;;;;;;22.55;12.88;;;14.90;99.90;;;;;;4998901;28;20034;-71
2022/10/31 02:32:32;;;;;;;18.27;13.70;;;14.90;99.90;;;;;;4998737;28;20529;-71
2022/10/31 02:35:02;;;;;;;17.38;12.70;;;14.90;99.90;;;;;;5000485;28;20056;-70
2022/10/31 02:37:33;;;;;;;19.08;12.43;;;14.90;99.90;;;;;;5002684;28;20485;-71
2022/10/31 02:40:26;;;;;;;17.40;13.35;;;14.90;99.90;;;;;;5001534;28;20034;-71
2022/10/31 02:43:14;;;;;;;17.05;12.52;;;14.90;99.90;;;;;;4998406;28;20079;-71
2022/10/31 02:46:08;;;;;;;16.85;12.07;;;14.80;99.90;;;;;;4999444;28;20037;-70
2022/10/31 02:48:37;;;;;;;16.63;12.70;;;14.80;99.90;;;;;;5000829;28;20030;-72
2022/10/31 02:51:04;;;;;;;16.88;12.77;;;14.80;99.90;;;;;;5000242;28;20026;-72
2022/10/31 02:53:34;;;;;;;18.30;13.07;;;14.90;99.90;;;;;;5001037;28;20091;-72
2022/10/31 02:56:16;;;;;;;18.10;12.55;;;14.80;99.90;;;;;;4998735;28;20442;-72
2022/10/31 02:59:03;;;;;;;16.27;11.82;;;14.80;99.90;;;;;;5000377;28;20029;-72
2022/10/31 03:01:41;;;;;;;18.48;13.50;;;14.90;99.90;;;;;;4999719;28;20030;-72
2022/10/31 03:04:20;;;;;;;16.70;11.88;;;14.90;99.90;;;;;;5003366;28;20029;-72
2022/10/31 03:07:18;;;;;;;19.63;13.07;;;14.90;99.90;;;;;;5003482;28;20121;-72
2022/10/31 03:10:10;;;;;;;14.90;11.38;;;14.90;99.90;;;;;;5004350;28;20038;-72
2022/10/31 03:12:50;;;;;;;19.50;11.95;;;14.90;99.90;;;;;;5003646;28;20030;-72
2022/10/31 03:15:22;;;;;;;18.52;12.20;;;14.90;99.90;;;;;;5003700;28;20075;-72
2022/10/31 03:18:09;;;;;;;16.05;11.40;;;14.90;99.90;;;;;;5003461;28;20029;-72
2022/10/31 03:20:47;;;;;;;15.38;11.57;;;14.90;99.90;;;;;;5006477;28;20033;-72
2022/10/31 03:23:19;;;;;;;17.67;11.73;;;14.90;99.90;;;;;;5014773;28;20102;-71
2022/10/31 03:25:47;;;;;;;21.73;11.80;;;14.90;99.90;;;;;;5005648;28;20036;-72
2022/10/31 03:28:18;;;;;;;17.40;13.05;;;14.90;99.90;;;;;;5005801;28;20096;-72
2022/10/31 03:30:45;;;;;;;17.73;11.88;;;14.80;99.90;;;;;;5004350;28;20029;-71
2022/10/31 03:33:16;;;;;;;19.42;11.85;;;14.90;99.90;;;;;;5003466;28;20030;-71
2022/10/31 03:35:46;;;;;;;14.60;11.15;;;14.90;99.90;;;;;;5005724;28;20141;-71
2022/10/31 03:38:13;;;;;;;16.33;10.80;;;14.80;99.90;;;;;;5005374;28;20041;-71
2022/10/31 03:40:43;;;;;;;15.68;11.50;;;14.90;99.90;;;;;;5004128;28;20109;-71
2022/10/31 03:43:16;;;;;;;18.40;11.77;;;14.80;99.90;;;;;;4998602;28;20057;-71
2022/10/31 03:45:46;;;;;;;16.63;11.57;;;14.90;99.90;;;;;;5001974;28;20034;-71
2022/10/31 03:48:14;;;;;;;15.10;11.38;;;14.90;99.90;;;;;;5002455;28;20053;-72
2022/10/31 03:51:00;;;;;;;18.33;11.05;;;14.90;99.90;;;;;;5003630;28;20018;-71
2022/10/31 03:53:33;;;;;;;13.50;10.43;;;14.90;99.90;;;;;;5003069;28;20026;-72
2022/10/31 03:56:06;;;;;;;16.70;10.33;;;14.90;99.90;;;;;;5004101;28;20026;-72
2022/10/31 03:58:42;;;;;;;15.45;11.23;;;14.90;99.90;;;;;;5000733;28;20156;-72
2022/10/31 04:01:13;;;;;;;18.42;11.13;;;14.90;99.90;;;;;;5004085;28;20049;-71
2022/10/31 04:03:39;;;;;;;16.77;11.55;;;14.90;99.90;;;;;;5003957;28;20033;-72
2022/10/31 04:06:11;;;;;;;15.38;10.27;;;14.90;99.90;;;;;;5003783;28;20026;-72
2022/10/31 04:08:43;;;;;;;16.90;11.00;;;14.90;99.90;;;;;;5004950;28;20034;-72
2022/10/31 04:11:12;;;;;;;17.35;10.77;;;14.90;99.90;;;;;;5005573;28;20030;-71
2022/10/31 04:13:40;;;;;;;19.00;10.43;;;14.90;99.90;;;;;;5002887;28;20076;-71
2022/10/31 04:16:07;;;;;;;13.40;10.05;;;14.90;99.90;;;;;;5005014;28;20041;-72
2022/10/31 04:18:33;;;;;;;19.13;11.82;;;14.90;99.90;;;;;;5002405;28;20610;-72
2022/10/31 04:21:06;;;;;;;13.05;10.27;;;14.90;99.90;;;;;;5001697;28;20025;-72
2022/10/31 04:23:33;;;;;;;16.42;11.52;;;14.90;99.90;;;;;;5003004;28;20036;-72
2022/10/31 04:25:59;;;;;;;14.75;10.48;;;15.00;99.90;;;;;;5001684;28;20049;-72
2022/10/31 04:28:25;;;;;;;12.98;10.45;;;15.00;99.90;;;;;;5002042;28;20042;-72
2022/10/31 04:30:51;;;;;;;16.95;10.55;;;15.00;99.90;;;;;;5001922;28;20021;-72
2022/10/31 04:33:17;;;;;;;19.00;11.30;;;15.00;99.90;;;;;;5001443;28;20065;-72
2022/10/31 04:35:43;;;;;;;13.85;10.48;;;14.90;99.90;;;;;;5003482;28;20485;-72
2022/10/31 04:38:15;;;;;;;17.10;10.27;;;15.00;99.90;;;;;;5001907;28;20429;-71
2022/10/31 04:40:42;;;;;;;13.98;10.25;;;15.00;99.90;;;;;;5002290;28;20104;-73
2022/10/31 04:43:08;;;;;;;16.58;11.25;;;15.00;99.90;;;;;;5002338;28;20050;-73
2022/10/31 04:45:34;;;;;;;20.90;11.82;;;14.90;99.90;;;;;;5001431;28;20021;-72
2022/10/31 04:47:59;;;;;;;15.23;10.13;;;14.90;99.90;;;;;;5001239;28;20030;-72
2022/10/31 04:50:31;;;;;;;16.92;10.27;;;14.90;99.90;;;;;;5002145;28;20560;-71
2022/10/31 04:52:56;;;;;;;18.10;10.85;;;14.90;99.90;;;;;;5000098;28;20026;-72
2022/10/31 04:55:22;;;;;;;15.02;9.70;;;14.90;99.90;;;;;;5004062;28;20971;-72
2022/10/31 04:57:49;;;;;;;16.77;10.70;;;14.90;99.90;;;;;;5001353;28;20026;-72
2022/10/31 05:00:19;;;;;;;16.95;10.43;;;14.90;99.90;;;;;;5001782;28;20058;-72
2022/10/31 05:02:47;;;;;;;16.92;10.63;;;14.90;99.90;;;;;;5002008;28;20437;-75
2022/10/31 05:05:14;;;;;;;12.57;9.32;;;14.90;99.90;;;;;;5002502;28;20052;-78
2022/10/31 05:07:41;;;;;;;14.40;11.13;;;14.90;99.90;;;;;;5002645;28;22328;-79
2022/10/31 05:10:09;;;;;;;15.43;11.13;;;14.80;99.90;;;;;;5000932;28;20574;-80
2022/10/31 05:12:35;;;;;;;14.00;10.13;;;14.90;99.90;;;;;;5003903;28;20030;-77
2022/10/31 05:15:01;;;;;;;14.93;10.38;;;14.90;99.90;;;;;;5005744;28;20022;-75
2022/10/31 05:17:26;;;;;;;15.52;10.30;;;14.80;99.90;;;;;;5014869;28;20030;-74
2022/10/31 05:19:52;;;;;;;13.43;10.60;;;14.80;99.90;;;;;;5002070;28;20029;-75
2022/10/31 05:22:18;;;;;;;13.75;10.73;;;14.80;99.90;;;;;;5002024;28;20088;-74
2022/10/31 05:24:43;;;;;;;16.73;11.32;;;14.80;99.90;;;;;;5003793;28;20068;-74
2022/10/31 05:27:10;;;;;;;21.00;11.32;;;14.80;99.90;;;;;;5000548;28;20056;-75
2022/10/31 05:29:35;;;;;;;18.50;10.88;;;14.70;99.90;;;;;;5001928;28;20080;-74
2022/10/31 05:32:04;;;;;;;14.95;10.52;;;14.70;99.90;;;;;;5000226;28;20479;-74
2022/10/31 05:34:30;;;;;;;19.65;10.27;;;14.70;99.90;;;;;;5000408;28;20041;-73
2022/10/31 05:36:55;;;;;;;19.33;10.40;;;14.70;99.90;;;;;;5001797;28;20025;-74
2022/10/31 05:39:21;;;;;;;14.35;10.57;;;14.70;99.90;;;;;;5002229;28;22011;-74
2022/10/31 05:41:46;;;;;;;16.85;10.75;;;14.70;99.90;;;;;;5001071;28;20206;-74
2022/10/31 05:44:12;;;;;;;16.98;10.65;;;14.70;99.90;;;;;;5001962;28;20523;-74
2022/10/31 05:46:37;;;;;;;17.77;11.45;;;14.70;99.90;;;;;;5008298;28;20064;-76
2022/10/31 05:49:04;;;;;;;19.15;11.65;;;14.70;99.90;;;;;;5020288;28;20041;-75
2022/10/31 05:51:29;;;;;;;18.23;10.88;;;14.70;99.90;;;;;;5010023;28;20032;-74
2022/10/31 05:53:55;;;;;;;13.20;10.77;;;14.70;99.90;;;;;;5006047;28;20038;-74
2022/10/31 05:56:20;;;;;;;15.60;11.10;;;14.60;99.90;;;;;;5003310;28;20025;-76
2022/10/31 05:58:46;;;;;;;16.85;10.60;;;14.70;99.90;;;;;;5003470;28;20401;-75
2022/10/31 06:01:13;;;;;;;15.35;9.93;;;14.70;99.90;;;;;;5003211;28;20267;-75
2022/10/31 06:03:38;;;;;;;16.00;10.98;;;14.70;99.90;;;;;;5004512;28;20408;-73
2022/10/31 06:06:04;;;;;;;15.82;10.65;;;14.70;99.90;;;;;;5003980;28;20116;-75
2022/10/31 06:08:30;;;;;;;17.08;11.05;;;14.70;99.90;;;;;;5000388;28;20038;-75
2022/10/31 06:10:55;;;;;;;14.35;10.60;;;14.70;99.90;;;;;;5001147;28;20053;-75
2022/10/31 06:13:22;;;;;;;18.25;10.18;;;14.70;99.90;;;;;;5004796;28;20025;-75
2022/10/31 06:15:48;;;;;;;16.67;10.63;;;14.70;99.90;;;;;;4999882;28;20069;-75
2022/10/31 06:18:13;;;;;;;15.18;9.90;;;14.70;99.90;;;;;;5000609;28;20103;-75
2022/10/31 06:20:39;;;;;;;18.27;10.43;;;14.60;99.90;;;;;;5001925;28;20025;-74
2022/10/31 06:23:05;;;;;;;16.05;11.45;;;14.70;99.90;;;;;;5000861;28;20042;-74
2022/10/31 06:25:32;;;;;;;14.68;10.57;;;14.70;99.90;;;;;;5002002;28;20022;-74
2022/10/31 06:27:58;;;;;;;17.33;10.80;;;14.60;99.90;;;;;;5001338;28;20940;-75
2022/10/31 06:30:23;;;;;;;20.35;11.07;;;14.70;99.90;;;;;;5001347;28;20026;-76
2022/10/31 06:32:49;;;;;;;16.48;10.68;;;14.70;99.90;;;;;;5000703;28;20044;-78
2022/10/31 06:35:15;;;;;;;17.65;10.88;;;14.70;99.90;;;;;;4998399;28;20121;-78
2022/10/31 06:37:40;;;;;;;17.27;11.38;;;14.70;99.90;;;;;;5002237;28;20121;-79
2022/10/31 06:40:06;;;;;;;18.88;11.40;;;14.70;99.90;;;;;;5021973;28;20034;-78
2022/10/31 06:42:32;;;;;;;18.30;10.75;;;14.70;99.90;;;;;;5007096;28;20049;-79
2022/10/31 06:44:58;;;;;;;15.80;11.95;;;14.70;99.90;;;;;;5004857;28;20022;-78
2022/10/31 06:47:24;;;;;;;15.18;10.65;;;14.80;99.90;;;;;;5006045;28;20041;-80
2022/10/31 06:49:49;;;;;;;14.65;10.60;;;14.80;99.90;;;;;;5004271;28;20769;-78
2022/10/31 06:52:15;;;;;;;14.38;10.48;;;14.80;99.90;;;;;;5005852;28;20033;-78
2022/10/31 06:54:41;;;;;;;15.60;11.65;;;14.90;99.90;;;;;;5005342;28;20566;-76
2022/10/31 06:57:06;;;;;;;21.33;11.32;;;14.90;99.90;;;;;;5021196;28;20057;-75
2022/10/31 06:59:34;;;;;;;16.83;11.27;;;14.90;99.90;;;;;;5004640;28;20025;-79
2022/10/31 07:02:00;;;;;;;16.77;11.15;;;14.90;99.90;;;;;;5005192;28;20044;-79
2022/10/31 07:04:25;;;;;;;19.65;10.65;;;14.90;99.90;;;;;;5007582;28;20014;-76
2022/10/31 07:06:52;;;;;;;16.13;10.20;;;15.00;99.90;;;;;;5005006;28;20049;-79
2022/10/31 07:09:18;;;;;;;17.75;10.57;;;15.00;99.90;;;;;;5005385;28;20133;-75
2022/10/31 07:11:43;;;;;;;17.83;10.40;;;15.00;99.90;;;;;;5007478;28;20128;-76
2022/10/31 07:14:09;;;;;;;15.25;11.40;;;15.00;99.90;;;;;;5002643;28;20030;-74
2022/10/31 07:16:34;;;;;;;18.52;11.73;;;15.10;99.90;;;;;;5002622;28;20151;-76
2022/10/31 07:19:00;;;;;;;16.23;11.25;;;15.20;99.90;;;;;;5004585;28;20025;-77
2022/10/31 07:21:25;;;;;;;18.58;11.60;;;15.20;99.90;;;;;;5004708;28;20501;-77
2022/10/31 07:23:51;;;;;;;17.85;12.23;;;15.20;99.90;;;;;;5007452;28;20188;-78
2022/10/31 07:26:16;;;;;;;18.20;13.45;;;15.30;99.90;;;;;;5003877;28;20548;-82
2022/10/31 07:28:42;;;;;;;21.30;13.85;;;15.30;99.90;;;;;;5004645;28;20631;-77
2022/10/31 07:31:08;;;;;;;21.05;13.15;;;15.40;99.90;;;;;;5020241;28;20473;-76
2022/10/31 07:33:33;;;;;;;24.65;13.60;;;15.50;99.90;;;;;;5004210;28;20080;-76
2022/10/31 07:35:59;;;;;;;19.13;13.02;;;15.60;99.90;;;;;;5003634;28;20022;-75
2022/10/31 07:38:26;;;;;;;22.92;14.05;;;15.70;99.90;;;;;;5003256;28;20037;-76
2022/10/31 07:40:52;;;;;;;19.00;13.18;;;15.70;99.90;;;;;;5005228;28;20046;-73
2022/10/31 07:43:18;;;;;;;23.00;14.30;;;15.80;99.90;;;;;;5001995;28;20096;-79
2022/10/31 07:45:48;;;;;;;20.98;13.85;;;15.90;99.90;;;;;;5002335;28;20112;-75
2022/10/31 07:48:13;;;;;;;27.25;14.63;;;15.90;99.90;;;;;;5002437;28;20451;-76
2022/10/31 07:50:39;;;;;;;23.67;14.70;;;16.00;99.90;;;;;;5003112;28;20021;-75
2022/10/31 07:53:10;;;;;;;22.17;13.23;;;16.10;99.90;;;;;;5002042;28;20043;-77
2022/10/31 07:55:36;;;;;;;22.90;13.77;;;16.10;99.90;;;;;;5002274;28;20026;-77
2022/10/31 07:58:10;;;;;;;24.92;15.18;;;16.20;99.90;;;;;;5002423;28;20901;-77
2022/10/31 08:00:39;;;;;;;23.10;13.02;;;16.20;99.90;;;;;;5002254;28;20492;-78
2022/10/31 08:03:13;;;;;;;21.58;14.90;;;16.30;99.90;;;;;;5001889;28;20516;-75
2022/10/31 08:05:40;;;;;;;21.83;14.18;;;16.30;99.90;;;;;;5004104;28;20485;-77
2022/10/31 08:08:07;;;;;;;23.63;13.82;;;16.30;99.90;;;;;;5004440;28;20515;-76
2022/10/31 08:10:33;;;;;;;21.25;13.55;;;16.40;99.90;;;;;;5025664;28;20026;-77
2022/10/31 08:13:09;;;;;;;20.33;13.35;;;16.40;99.90;;;;;;5022654;28;20137;-77
2022/10/31 08:15:37;;;;;;;23.45;14.05;;;16.50;99.90;;;;;;5005896;28;20692;-77
2022/10/31 08:18:04;;;;;;;24.48;14.20;;;16.50;99.90;;;;;;5005119;28;20057;-77
2022/10/31 08:20:31;;;;;;;21.90;15.57;;;16.50;99.90;;;;;;5005060;28;20060;-77
2022/10/31 08:23:00;;;;;;;27.65;15.07;;;16.50;99.90;;;;;;5005551;28;20773;-78
2022/10/31 08:25:27;;;;;;;21.17;14.52;;;16.50;99.90;;;;;;5006376;28;20392;-76
2022/10/31 08:27:54;;;;;;;25.10;14.13;;;16.50;99.90;;;;;;5006142;28;20136;-77
2022/10/31 08:30:21;;;;;;;22.48;15.13;;;16.50;99.90;;;;;;5002959;28;20048;-77
2022/10/31 08:32:47;;;;;;;25.35;14.63;;;16.60;99.90;;;;;;5002655;28;20038;-77
2022/10/31 08:35:13;;;;;;;21.02;15.95;;;16.60;99.90;;;;;;5003592;28;20034;-77
2022/10/31 08:37:39;;;;;;;24.65;15.93;;;16.60;99.90;;;;;;5002764;28;20569;-77
2022/10/31 08:40:06;;;;;;;28.92;15.07;;;16.60;99.90;;;;;;5000489;28;20022;-76
2022/10/31 08:42:32;;;;;;;24.45;16.90;;;16.70;99.90;;;;;;5003130;28;20042;-78
2022/10/31 08:44:58;;;;;;;26.55;16.80;;;16.70;99.90;;;;;;5002688;28;20031;-77
2022/10/31 08:47:24;;;;;;;23.52;16.52;;;16.70;99.90;;;;;;5002888;28;20539;-77
2022/10/31 08:49:49;;;;;;;30.23;16.15;;;16.60;99.90;;;;;;4985031;28;20537;-76
2022/10/31 08:52:15;;;;;;;28.42;17.42;;;16.60;99.90;;;;;;5003368;28;20034;-76
2022/10/31 08:54:41;;;;;;;25.33;16.38;;;16.60;99.90;;;;;;5005354;28;20092;-76
2022/10/31 08:57:06;;;;;;;23.30;17.25;;;16.60;99.90;;;;;;5001914;28;20030;-77
2022/10/31 08:59:32;;;;;;;23.98;17.38;;;16.50;99.90;;;;;;5001406;28;20100;-77
2022/10/31 09:01:57;;;;;;;28.02;16.80;;;16.40;99.90;;;;;;5002557;28;20026;-77
2022/10/31 09:04:23;;;;;;;30.27;19.80;;;16.40;99.90;;;;;;5001905;28;20700;-76
2022/10/31 09:06:49;;;;;;;25.05;17.23;;;16.40;99.90;;;;;;5000719;28;20415;-76
2022/10/31 09:09:14;;;;;;;29.90;18.63;;;16.40;99.90;;;;;;5001180;28;20038;-77
2022/10/31 09:11:40;;;;;;;25.77;16.88;;;16.40;99.90;;;;;;5001650;28;20032;-75
2022/10/31 09:14:05;;;;;;;27.60;17.63;;;16.40;99.90;;;;;;5003188;28;20042;-75
2022/10/31 09:16:31;;;;;;;30.77;18.63;;;16.40;99.90;;;;;;5001043;28;20029;-78
2022/10/31 09:18:56;;;;;;;27.67;18.33;;;16.50;99.90;;;;;;5007205;28;20018;-79
2022/10/31 09:21:23;;;;;;;27.45;18.92;;;16.50;99.90;;;;;;4999550;28;20054;-73
2022/10/31 09:23:49;;;;;;;34.83;22.30;;;16.50;99.90;;;;;;4985245;28;20627;-76
2022/10/31 09:26:14;;;;;;;33.97;22.10;;;16.50;99.90;;;;;;5000584;28;20087;-74
2022/10/31 09:28:40;;;;;;;32.17;21.95;;;16.50;99.90;;;;;;5002200;28;20032;-74
2022/10/31 09:31:05;;;;;;;28.38;19.08;;;16.50;99.90;;;;;;5003459;28;20030;-75
2022/10/31 09:33:31;;;;;;;24.48;18.35;;;16.60;99.90;;;;;;5004253;28;20025;-75
2022/10/31 09:35:58;;;;;;;29.45;19.10;;;16.60;99.90;;;;;;5003994;28;20030;-75
2022/10/31 09:38:24;;;;;;;25.65;18.27;;;16.60;99.90;;;;;;5003831;28;20040;-75
2022/10/31 09:41:20;;;;;;;29.10;18.73;;;16.70;99.90;;;;;;5002277;28;20037;-77
2022/10/31 09:43:56;;;;;;;23.92;17.13;;;16.80;99.90;;;;;;5003744;28;20133;-75
2022/10/31 09:46:38;;;;;;;26.92;19.00;;;16.80;99.90;;;;;;5001924;28;20038;-78
2022/10/31 09:49:29;;;;;;;27.02;18.13;;;16.90;99.90;;;;;;5007123;28;20490;-77
2022/10/31 09:52:03;;;;;;;28.00;18.52;;;16.90;99.90;;;;;;4999107;28;20062;-71
2022/10/31 09:55:00;;;;;;;30.02;20.08;;;16.90;99.90;;;;;;5001822;28;20030;-73
2022/10/31 09:57:35;;;;;;;29.65;18.77;;;16.90;99.90;;;;;;5002944;28;20033;-72
2022/10/31 10:00:05;;;;;;;33.85;20.10;;;17.00;99.90;;;;;;5001258;28;20136;-71
2022/10/31 10:03:12;;;;;;;30.63;18.98;;;17.00;99.90;;;;;;5002053;28;20385;-72
2022/10/31 10:06:04;;;;;;;25.08;17.83;;;17.00;99.90;;;;;;5015545;28;20049;-72
2022/10/31 10:08:32;;;;;;;28.20;19.00;;;17.00;99.90;;;;;;5002533;28;20045;-72
2022/10/31 10:11:19;;;;;;;29.25;19.05;;;17.00;99.90;;;;;;5001789;28;20028;-71
2022/10/31 10:14:09;;;;;;;30.70;21.67;;;17.10;99.90;;;;;;5002700;28;20029;-71
2022/10/31 10:16:52;;;;;;;34.17;20.77;;;17.10;99.90;;;;;;5002045;28;20053;-71
2022/10/31 10:19:36;;;;;;;29.45;20.00;;;17.10;99.90;;;;;;5001440;28;20033;-72
2022/10/31 10:22:24;;;;;;;33.83;20.42;;;17.10;99.90;;;;;;5002597;28;20043;-71
2022/10/31 10:25:01;;;;;;;27.67;19.45;;;17.10;99.90;;;;;;5001145;28;20029;-71
2022/10/31 10:27:46;;;;;;;27.52;18.58;;;17.10;99.90;;;;;;5002219;28;20054;-71
2022/10/31 10:30:13;;;;;;;29.27;18.63;;;17.20;99.90;;;;;;5000841;28;20374;-71
2022/10/31 10:32:51;;;;;;;31.67;18.60;;;17.20;99.90;;;;;;5004745;28;20041;-71
2022/10/31 10:35:25;;;;;;;30.25;19.30;;;17.30;99.90;;;;;;5006254;28;20116;-71
2022/10/31 10:37:59;;;;;;;32.20;19.50;;;17.30;99.90;;;;;;5004045;28;20030;-71
2022/10/31 10:40:27;;;;;;;28.63;20.08;;;17.40;99.90;;;;;;5002013;28;20056;-71
2022/10/31 10:43:23;;;;;;;29.25;19.25;;;17.40;99.90;;;;;;5001256;28;20042;-70
2022/10/31 10:49:34;;;;;;;28.85;20.67;;;17.40;99.90;;;;;;5002881;28;20153;-71
2022/10/31 10:52:20;;;;;;;31.27;19.42;;;17.50;99.90;;;;;;4999883;28;20076;-71
2022/10/31 10:54:49;;;;;;;28.27;18.70;;;17.50;99.90;;;;;;5000842;28;20049;-71
2022/10/31 10:57:38;;;;;;;26.70;20.35;;;17.60;99.90;;;;;;4998678;28;20056;-71
2022/10/31 11:00:38;;;;;;;30.60;20.15;;;17.70;99.90;;;;;;5001097;28;20038;-71
2022/10/31 11:03:04;;;;;;;26.77;19.88;;;17.80;99.90;;;;;;5002812;28;20038;-71
2022/10/31 11:05:37;;;;;;;31.58;19.40;;;17.80;99.90;;;;;;5004081;28;20040;-70
2022/10/31 11:08:05;;;;;;;30.08;19.65;;;17.90;99.90;;;;;;5003252;28;22459;-70
2022/10/31 11:10:34;;;;;;;31.63;20.60;;;17.90;99.90;;;;;;5002087;28;20036;-71
2022/10/31 11:13:12;;;;;;;26.15;19.33;;;18.00;99.90;;;;;;5000286;28;20061;-70
2022/10/31 11:15:57;;;;;;;34.65;20.58;;;18.00;99.90;;;;;;5004886;28;20122;-70
2022/10/31 11:18:25;;;;;;;30.48;19.00;;;18.00;99.90;;;;;;5000479;28;20037;-70
2022/10/31 11:20:53;;;;;;;25.90;18.65;;;18.00;99.90;;;;;;5002448;28;20045;-70
2022/10/31 11:23:21;;;;;;;27.38;20.10;;;18.10;99.90;;;;;;5002420;28;20061;-70
2022/10/31 11:25:55;;;;;;;28.73;20.63;;;18.10;99.90;;;;;;5006542;28;20056;-69
2022/10/31 11:28:21;;;;;;;31.92;19.35;;;18.20;99.90;;;;;;5005652;28;20034;-71
2022/10/31 11:30:56;;;;;;;26.80;17.83;;;18.20;99.90;;;;;;5005498;28;20045;-70
2022/10/31 11:33:33;;;;;;;31.02;21.08;;;18.30;99.90;;;;;;5004061;28;20033;-71
2022/10/31 11:36:01;;;;;;;30.00;20.80;;;18.30;99.90;;;;;;5008324;28;20025;-71
2022/10/31 11:38:35;;;;;;;31.33;20.15;;;18.30;99.90;;;;;;5004818;28;20145;-70
2022/10/31 11:41:12;;;;;;;30.48;20.23;;;18.40;99.90;;;;;;5005079;28;20044;-71
2022/10/31 11:43:45;;;;;;;32.78;22.55;;;18.40;99.90;;;;;;5005084;28;20072;-71
2022/10/31 11:46:21;;;;;;;32.45;20.83;;;18.50;99.90;;;;;;5007840;28;20037;-71
2022/10/31 11:48:51;;;;;;;26.17;19.20;;;18.50;99.90;;;;;;5014579;28;20072;-71
2022/10/31 11:51:31;;;;;;;34.92;21.63;;;18.60;99.90;;;;;;5012598;28;20089;-71
2022/10/31 11:53:59;;;;;;;33.22;20.63;;;18.60;99.90;;;;;;5016754;28;20028;-71
2022/10/31 11:56:26;;;;;;;28.88;18.63;;;18.70;99.90;;;;;;5014988;28;20057;-71
2022/10/31 11:59:01;;;;;;;29.33;19.33;;;18.70;99.90;;;;;;5012759;28;21690;-71
2022/10/31 12:01:32;;;;;;;31.80;20.20;;;18.80;99.90;;;;;;5013800;28;20049;-71
2022/10/31 12:04:10;;;;;;;32.85;20.77;;;18.80;99.90;;;;;;5009832;28;20057;-71
2022/10/31 12:06:38;;;;;;;27.33;18.52;;;18.90;99.90;;;;;;5009857;28;20041;-71
2022/10/31 12:09:19;;;;;;;29.50;19.90;;;18.90;99.90;;;;;;5009511;28;20142;-71
2022/10/31 12:11:56;;;;;;;32.75;22.05;;;19.00;99.90;;;;;;5008239;28;20093;-72
2022/10/31 12:14:31;;;;;;;29.95;20.80;;;19.00;99.90;;;;;;5013069;28;20049;-72
2022/10/31 12:17:14;;;;;;;30.60;19.83;;;19.10;99.90;;;;;;5008334;28;20030;-71
2022/10/31 12:20:00;;;;;;;27.05;18.33;;;19.10;99.90;;;;;;5008229;28;20040;-71
2022/10/31 12:22:31;;;;;;;28.98;19.83;;;19.20;99.90;;;;;;5004712;28;20029;-72
2022/10/31 12:25:09;;;;;;;30.08;19.25;;;19.20;99.90;;;;;;5003669;28;20034;-71
2022/10/31 12:27:43;;;;;;;36.42;21.58;;;19.30;99.90;;;;;;5020491;28;20034;-72
2022/10/31 12:30:18;;;;;;;41.07;26.37;;;19.30;99.90;;;;;;5002470;28;20022;-71
2022/10/31 12:33:25;;;;;;;39.45;24.77;;;19.40;99.90;;;;;;5004312;28;20299;-72
2022/10/31 12:36:09;;;;;;;32.95;23.02;;;19.40;99.90;;;;;;5001809;28;20026;-72
2022/10/31 12:39:00;;;;;;;39.08;23.27;;;19.30;99.90;;;;;;5004259;28;20510;-71
2022/10/31 12:41:48;;;;;;;33.97;22.80;;;19.40;99.90;;;;;;5003081;28;20026;-71
2022/10/31 12:44:48;;;;;;;34.28;23.98;;;19.40;99.90;;;;;;5006333;28;20166;-72
2022/10/31 12:47:22;;;;;;;36.75;23.05;;;19.40;99.90;;;;;;5003952;28;20045;-72
2022/10/31 12:50:14;;;;;;;30.08;22.70;;;19.40;99.90;;;;;;5003939;28;20457;-71